createdAt,value
2022-11-07T00:00:48.891Z,1.70
2022-11-07T00:01:43.021Z,1.60
2022-11-07T00:02:42.952Z,1.90
2022-11-07T00:03:42.902Z,1.60
2022-11-07T00:04:42.860Z,1.90
2022-11-07T00:05:42.826Z,1.70
2022-11-07T00:06:42.779Z,1.60
2022-11-07T00:07:42.738Z,1.60
2022-11-07T00:08:42.701Z,1.70
2022-11-07T00:09:42.652Z,1.60
2022-11-07T00:10:42.628Z,1.60
2022-11-07T00:11:42.574Z,1.70
2022-11-07T00:12:42.534Z,1.90
2022-11-07T00:13:42.490Z,1.40
2022-11-07T00:14:42.450Z,1.60
2022-11-07T00:15:42.410Z,1.60
2022-11-07T00:16:42.381Z,1.50
2022-11-07T00:17:42.328Z,1.60
2022-11-07T00:18:42.293Z,1.50
2022-11-07T00:19:42.247Z,1.40
2022-11-07T00:20:42.207Z,1.50
2022-11-07T00:21:42.168Z,1.50
2022-11-07T00:22:42.147Z,1.70
2022-11-07T00:23:42.085Z,1.60
2022-11-07T00:24:42.044Z,1.40
2022-11-07T00:25:42.003Z,1.40
2022-11-07T00:26:41.962Z,1.80
2022-11-07T00:27:41.984Z,1.60
2022-11-07T00:28:41.896Z,1.90
2022-11-07T00:29:41.843Z,1.70
2022-11-07T00:30:41.800Z,1.90
2022-11-07T00:31:41.762Z,1.60
2022-11-07T00:32:41.735Z,1.80
2022-11-07T00:33:41.687Z,1.70
2022-11-07T00:34:41.637Z,1.90
2022-11-07T00:35:41.600Z,1.80
2022-11-07T00:36:41.559Z,1.80
2022-11-07T00:37:41.513Z,1.60
2022-11-07T00:38:41.495Z,1.60
2022-11-07T00:39:51.623Z,1.60
2022-11-07T00:40:41.405Z,1.60
2022-11-07T00:41:41.357Z,1.70
2022-11-07T00:42:41.312Z,1.60
2022-11-07T00:43:41.270Z,1.70
2022-11-07T00:44:41.231Z,1.50
2022-11-07T00:45:41.190Z,1.60
2022-11-07T00:46:41.161Z,1.40
2022-11-07T00:47:41.116Z,1.70
2022-11-07T00:48:41.072Z,1.60
2022-11-07T00:49:41.027Z,1.60
2022-11-07T00:50:40.986Z,1.60
2022-11-07T00:51:41.627Z,1.60
2022-11-07T00:52:40.916Z,1.60
2022-11-07T00:53:40.868Z,1.40
2022-11-07T00:54:40.821Z,1.60
2022-11-07T00:55:40.781Z,1.50
2022-11-07T00:56:40.744Z,1.50
2022-11-07T00:57:40.707Z,1.50
2022-11-07T00:58:40.661Z,1.50
2022-11-07T00:59:40.620Z,1.40
2022-11-07T01:00:40.579Z,1.60
2022-11-07T01:01:40.635Z,1.50
2022-11-07T01:02:40.567Z,1.50
2022-11-07T01:03:40.472Z,1.60
2022-11-07T01:04:40.417Z,1.40
2022-11-07T01:05:40.376Z,1.40
2022-11-07T01:06:40.334Z,1.30
2022-11-07T01:07:40.293Z,1.50
2022-11-07T01:08:40.254Z,1.30
2022-11-07T01:09:40.224Z,1.60
2022-11-07T01:10:40.171Z,1.50
2022-11-07T01:11:42.634Z,1.40
2022-11-07T01:12:40.091Z,1.40
2022-11-07T01:13:40.054Z,1.60
2022-11-07T01:14:40.029Z,1.30
2022-11-07T01:15:39.967Z,1.30
2022-11-07T01:16:39.930Z,1.30
2022-11-07T01:17:39.884Z,1.30
2022-11-07T01:18:39.846Z,1.40
2022-11-07T01:19:39.804Z,1.30
2022-11-07T01:20:39.774Z,1.30
2022-11-07T01:21:39.745Z,1.20
2022-11-07T01:22:39.680Z,1.50
2022-11-07T01:23:39.641Z,1.30
2022-11-07T01:24:39.598Z,1.40
2022-11-07T01:25:39.564Z,1.50
2022-11-07T01:26:39.516Z,1.30
2022-11-07T01:27:39.492Z,1.20
2022-11-07T01:28:39.439Z,1.40
2022-11-07T01:29:39.395Z,1.50
2022-11-07T01:30:39.356Z,1.60
2022-11-07T01:31:39.320Z,1.40
2022-11-07T01:32:39.288Z,1.40
2022-11-07T01:33:39.233Z,1.40
2022-11-07T01:34:39.191Z,1.60
2022-11-07T01:35:39.230Z,1.40
2022-11-07T01:36:39.107Z,1.60
2022-11-07T01:37:39.066Z,1.60
2022-11-07T01:38:39.039Z,1.40
2022-11-07T01:39:38.985Z,1.60
2022-11-07T01:40:38.943Z,1.40
2022-11-07T01:41:38.902Z,1.30
2022-11-07T01:42:38.869Z,1.50
2022-11-07T01:43:38.820Z,1.40
2022-11-07T01:44:38.792Z,1.50
2022-11-07T01:45:38.738Z,1.50
2022-11-07T01:46:38.697Z,1.50
2022-11-07T01:47:38.657Z,1.60
2022-11-07T01:48:38.613Z,1.40
2022-11-07T01:49:38.584Z,1.30
2022-11-07T01:50:38.535Z,1.50
2022-11-07T01:51:38.492Z,1.30
2022-11-07T01:52:38.451Z,1.30
2022-11-07T01:53:38.407Z,1.70
2022-11-07T01:54:38.377Z,1.50
2022-11-07T01:55:38.326Z,1.50
2022-11-07T01:56:38.287Z,1.70
2022-11-07T01:57:38.243Z,1.70
2022-11-07T01:58:38.205Z,1.50
2022-11-07T01:59:38.161Z,1.40
2022-11-07T02:00:38.130Z,1.60
2022-11-07T02:01:38.196Z,1.50
2022-11-07T02:02:38.272Z,1.60
2022-11-07T02:03:37.997Z,1.50
2022-11-07T02:04:37.953Z,1.50
2022-11-07T02:05:37.912Z,1.60
2022-11-07T02:06:37.881Z,1.60
2022-11-07T02:07:37.833Z,1.70
2022-11-07T02:08:37.788Z,1.60
2022-11-07T02:09:37.747Z,1.70
2022-11-07T02:10:37.706Z,1.60
2022-11-07T02:11:37.665Z,1.50
2022-11-07T02:12:37.636Z,1.50
2022-11-07T02:13:37.584Z,1.70
2022-11-07T02:14:37.543Z,1.80
2022-11-07T02:15:37.499Z,1.70
2022-11-07T02:16:37.457Z,1.60
2022-11-07T02:17:37.417Z,1.50
2022-11-07T02:18:37.395Z,1.60
2022-11-07T02:19:37.350Z,1.80
2022-11-07T02:20:37.292Z,1.50
2022-11-07T02:21:37.250Z,1.70
2022-11-07T02:22:37.209Z,1.50
2022-11-07T02:23:37.170Z,1.60
2022-11-07T02:24:37.136Z,1.30
2022-11-07T02:25:37.085Z,1.50
2022-11-07T02:26:37.654Z,1.70
2022-11-07T02:27:37.004Z,1.50
2022-11-07T02:28:36.967Z,1.50
2022-11-07T02:29:36.931Z,1.60
2022-11-07T02:30:36.880Z,1.50
2022-11-07T02:31:36.838Z,1.50
2022-11-07T02:32:36.806Z,1.40
2022-11-07T02:33:36.763Z,1.50
2022-11-07T02:34:36.714Z,1.40
2022-11-07T02:35:36.690Z,1.60
2022-11-07T02:36:37.592Z,1.50
2022-11-07T02:37:36.588Z,1.30
2022-11-07T02:38:36.550Z,1.40
2022-11-07T02:39:36.515Z,1.70
2022-11-07T02:40:36.466Z,1.50
2022-11-07T02:41:36.434Z,1.80
2022-11-07T02:42:38.791Z,1.60
2022-11-07T02:43:36.342Z,1.60
2022-11-07T02:44:36.300Z,1.60
2022-11-07T02:45:36.258Z,1.60
2022-11-07T02:46:36.231Z,1.60
2022-11-07T02:47:36.176Z,1.60
2022-11-07T02:48:36.136Z,1.80
2022-11-07T02:49:36.097Z,1.70
2022-11-07T02:50:36.057Z,1.80
2022-11-07T02:51:36.022Z,1.60
2022-11-07T02:52:38.680Z,1.60
2022-11-07T02:53:35.938Z,1.60
2022-11-07T02:54:35.885Z,1.50
2022-11-07T02:55:35.847Z,1.60
2022-11-07T02:56:35.808Z,1.60
2022-11-07T02:57:35.775Z,1.70
2022-11-07T02:58:35.733Z,1.90
2022-11-07T02:59:35.682Z,1.70
2022-11-07T03:00:35.638Z,1.70
2022-11-07T03:01:35.679Z,1.80
2022-11-07T03:02:35.663Z,1.80
2022-11-07T03:03:35.529Z,1.90
2022-11-07T03:04:35.477Z,1.80
2022-11-07T03:05:35.433Z,1.70
2022-11-07T03:06:35.390Z,2.00
2022-11-07T03:07:35.349Z,1.70
2022-11-07T03:08:38.708Z,1.90
2022-11-07T03:09:35.269Z,1.80
2022-11-07T03:10:36.167Z,1.70
2022-11-07T03:11:35.183Z,1.70
2022-11-07T03:12:35.700Z,2.00
2022-11-07T03:13:35.115Z,2.00
2022-11-07T03:14:35.095Z,1.80
2022-11-07T03:15:35.022Z,1.80
2022-11-07T03:16:34.977Z,1.90
2022-11-07T03:17:34.936Z,1.90
2022-11-07T03:18:34.897Z,1.70
2022-11-07T03:19:34.861Z,1.90
2022-11-07T03:20:34.820Z,1.70
2022-11-07T03:21:34.768Z,1.90
2022-11-07T03:22:34.727Z,1.80
2022-11-07T03:23:34.689Z,1.90
2022-11-07T03:24:34.652Z,1.90
2022-11-07T03:25:34.612Z,2.10
2022-11-07T03:26:34.562Z,1.80
2022-11-07T03:27:34.528Z,2.10
2022-11-07T03:28:34.510Z,1.70
2022-11-07T03:29:34.433Z,1.70
2022-11-07T03:30:34.392Z,1.90
2022-11-07T03:31:34.365Z,1.70
2022-11-07T03:32:35.195Z,2.20
2022-11-07T03:33:34.275Z,2.10
2022-11-07T03:34:34.225Z,2.00
2022-11-07T03:35:35.177Z,2.10
2022-11-07T03:36:34.150Z,1.90
2022-11-07T03:37:35.608Z,2.20
2022-11-07T03:38:34.697Z,1.90
2022-11-07T03:39:34.019Z,2.00
2022-11-07T03:40:33.985Z,1.90
2022-11-07T03:41:33.938Z,2.10
2022-11-07T03:42:33.894Z,1.90
2022-11-07T03:43:36.125Z,1.90
2022-11-07T03:44:33.823Z,1.90
2022-11-07T03:45:33.783Z,2.20
2022-11-07T03:46:33.729Z,2.10
2022-11-07T03:47:33.690Z,2.10
2022-11-07T03:48:33.647Z,2.10
2022-11-07T03:49:33.606Z,2.00
2022-11-07T03:50:33.577Z,2.50
2022-11-07T03:51:33.525Z,1.90
2022-11-07T03:52:33.491Z,2.00
2022-11-07T03:53:33.435Z,2.30
2022-11-07T03:54:33.421Z,1.80
2022-11-07T03:55:33.355Z,2.10
2022-11-07T03:56:33.312Z,2.10
2022-11-07T03:57:33.293Z,2.10
2022-11-07T03:58:33.229Z,2.20
2022-11-07T03:59:33.192Z,1.90
2022-11-07T04:00:33.152Z,2.20
2022-11-07T04:01:33.175Z,2.40
2022-11-07T04:02:33.243Z,2.00
2022-11-07T04:03:33.037Z,2.00
2022-11-07T04:04:32.982Z,2.30
2022-11-07T04:05:32.939Z,2.30
2022-11-07T04:06:32.897Z,2.00
2022-11-07T04:07:32.858Z,2.30
2022-11-07T04:08:32.823Z,2.00
2022-11-07T04:09:32.777Z,1.90
2022-11-07T04:10:32.732Z,1.80
2022-11-07T04:11:32.697Z,2.10
2022-11-07T04:12:32.651Z,2.10
2022-11-07T04:13:32.605Z,2.00
2022-11-07T04:14:32.578Z,1.80
2022-11-07T04:15:32.595Z,1.90
2022-11-07T04:16:32.484Z,1.80
2022-11-07T04:17:32.441Z,1.90
2022-11-07T04:18:32.402Z,2.00
2022-11-07T04:19:32.360Z,2.20
2022-11-07T04:20:32.329Z,2.10
2022-11-07T04:21:32.275Z,2.20
2022-11-07T04:22:32.235Z,2.10
2022-11-07T04:23:32.196Z,2.10
2022-11-07T04:24:32.161Z,2.20
2022-11-07T04:25:32.108Z,2.20
2022-11-07T04:26:32.088Z,2.10
2022-11-07T04:27:32.041Z,2.10
2022-11-07T04:28:31.996Z,1.90
2022-11-07T04:29:31.946Z,2.10
2022-11-07T04:30:31.914Z,2.10
2022-11-07T04:31:31.860Z,2.30
2022-11-07T04:32:31.820Z,2.20
2022-11-07T04:33:32.215Z,2.20
2022-11-07T04:34:31.733Z,2.60
2022-11-07T04:35:31.694Z,2.20
2022-11-07T04:36:31.650Z,2.20
2022-11-07T04:37:31.610Z,2.10
2022-11-07T04:38:31.578Z,2.10
2022-11-07T04:39:32.200Z,2.30
2022-11-07T04:40:31.488Z,2.10
2022-11-07T04:41:31.447Z,2.30
2022-11-07T04:42:31.402Z,2.10
2022-11-07T04:43:33.121Z,2.20
2022-11-07T04:44:31.317Z,2.20
2022-11-07T04:45:31.278Z,2.20
2022-11-07T04:46:31.276Z,2.10
2022-11-07T04:47:31.204Z,2.20
2022-11-07T04:48:31.153Z,2.60
2022-11-07T04:49:32.200Z,2.30
2022-11-07T04:50:31.085Z,2.00
2022-11-07T04:51:31.029Z,2.20
2022-11-07T04:52:31.026Z,2.20
2022-11-07T04:53:30.965Z,2.40
2022-11-07T04:54:30.945Z,2.30
2022-11-07T04:55:30.873Z,2.40
2022-11-07T04:56:34.670Z,2.20
2022-11-07T04:57:30.888Z,2.00
2022-11-07T04:58:30.742Z,2.40
2022-11-07T04:59:30.722Z,2.30
2022-11-07T05:00:30.807Z,2.60
2022-11-07T05:01:30.626Z,2.40
2022-11-07T05:02:30.641Z,2.30
2022-11-07T05:03:30.529Z,2.20
2022-11-07T05:04:30.503Z,2.20
2022-11-07T05:05:30.448Z,2.30
2022-11-07T05:06:30.416Z,2.50
2022-11-07T05:07:30.362Z,2.40
2022-11-07T05:08:30.322Z,2.20
2022-11-07T05:09:30.276Z,2.40
2022-11-07T05:10:30.236Z,2.40
2022-11-07T05:11:30.199Z,2.30
2022-11-07T05:12:30.168Z,2.20
2022-11-07T05:13:30.116Z,2.40
2022-11-07T05:14:30.072Z,2.40
2022-11-07T05:15:30.031Z,2.50
2022-11-07T05:16:29.989Z,2.60
2022-11-07T05:17:29.947Z,2.40
2022-11-07T05:18:30.224Z,2.70
2022-11-07T05:19:29.867Z,2.40
2022-11-07T05:20:29.823Z,2.60
2022-11-07T05:21:29.793Z,2.30
2022-11-07T05:22:29.740Z,2.20
2022-11-07T05:23:29.700Z,2.60
2022-11-07T05:24:29.658Z,2.40
2022-11-07T05:25:29.625Z,2.10
2022-11-07T05:26:29.574Z,2.40
2022-11-07T05:27:29.544Z,2.60
2022-11-07T05:28:36.903Z,2.80
2022-11-07T05:29:29.448Z,2.40
2022-11-07T05:30:29.406Z,2.60
2022-11-07T05:31:29.365Z,2.50
2022-11-07T05:32:29.340Z,2.50
2022-11-07T05:33:29.292Z,2.40
2022-11-07T05:34:29.244Z,2.30
2022-11-07T05:35:29.201Z,2.50
2022-11-07T05:36:29.160Z,2.10
2022-11-07T05:37:29.117Z,2.60
2022-11-07T05:38:29.086Z,2.50
2022-11-07T05:39:29.034Z,2.50
2022-11-07T05:40:29.006Z,2.60
2022-11-07T05:41:28.954Z,2.50
2022-11-07T05:42:28.911Z,2.70
2022-11-07T05:43:28.871Z,2.10
2022-11-07T05:44:28.829Z,2.50
2022-11-07T05:45:28.795Z,2.30
2022-11-07T05:46:28.745Z,2.40
2022-11-07T05:47:28.702Z,2.50
2022-11-07T05:48:28.662Z,2.50
2022-11-07T05:49:28.617Z,2.40
2022-11-07T05:50:28.586Z,2.40
2022-11-07T05:51:28.534Z,2.40
2022-11-07T05:52:28.499Z,2.60
2022-11-07T05:53:28.498Z,2.20
2022-11-07T05:54:28.410Z,2.30
2022-11-07T05:55:28.369Z,2.50
2022-11-07T05:56:28.337Z,2.50
2022-11-07T05:57:28.287Z,2.50
2022-11-07T05:58:28.248Z,2.60
2022-11-07T05:59:28.204Z,2.50
2022-11-07T06:00:28.164Z,2.20
2022-11-07T06:01:28.134Z,2.70
2022-11-07T06:02:28.157Z,2.50
2022-11-07T06:03:28.038Z,2.20
2022-11-07T06:04:27.999Z,2.50
2022-11-07T06:05:27.956Z,2.40
2022-11-07T06:06:27.914Z,2.50
2022-11-07T06:07:27.875Z,2.60
2022-11-07T06:08:27.847Z,2.60
2022-11-07T06:09:27.788Z,2.50
2022-11-07T06:10:27.750Z,2.40
2022-11-07T06:11:27.709Z,2.30
2022-11-07T06:12:27.671Z,2.30
2022-11-07T06:13:27.637Z,2.50
2022-11-07T06:14:27.594Z,2.70
2022-11-07T06:15:27.543Z,2.50
2022-11-07T06:16:27.503Z,2.40
2022-11-07T06:17:27.461Z,2.90
2022-11-07T06:18:27.418Z,2.40
2022-11-07T06:19:27.389Z,2.30
2022-11-07T06:20:27.337Z,2.70
2022-11-07T06:21:27.295Z,2.20
2022-11-07T06:22:27.254Z,2.50
2022-11-07T06:23:27.290Z,2.50
2022-11-07T06:24:27.176Z,2.30
2022-11-07T06:25:27.142Z,2.50
2022-11-07T06:26:27.092Z,2.70
2022-11-07T06:27:27.053Z,2.50
2022-11-07T06:28:27.009Z,2.40
2022-11-07T06:29:26.968Z,2.70
2022-11-07T06:30:26.924Z,2.60
2022-11-07T06:31:26.896Z,2.30
2022-11-07T06:32:26.846Z,2.60
2022-11-07T06:33:26.804Z,2.70
2022-11-07T06:34:26.758Z,2.50
2022-11-07T06:35:26.721Z,2.40
2022-11-07T06:36:26.685Z,2.50
2022-11-07T06:37:26.649Z,2.40
2022-11-07T06:38:26.597Z,2.50
2022-11-07T06:39:26.556Z,2.80
2022-11-07T06:40:35.744Z,2.40
2022-11-07T06:41:26.482Z,2.30
2022-11-07T06:42:26.435Z,2.70
2022-11-07T06:43:26.851Z,2.50
2022-11-07T06:44:26.352Z,2.60
2022-11-07T06:45:26.310Z,2.50
2022-11-07T06:46:26.283Z,3.00
2022-11-07T06:47:26.227Z,2.60
2022-11-07T06:48:26.190Z,2.40
2022-11-07T06:49:26.145Z,2.80
2022-11-07T06:50:26.106Z,2.30
2022-11-07T06:51:26.066Z,2.60
2022-11-07T06:52:26.035Z,2.60
2022-11-07T06:53:25.990Z,2.30
2022-11-07T06:54:25.940Z,2.40
2022-11-07T06:55:25.899Z,2.30
2022-11-07T06:56:25.859Z,2.30
2022-11-07T06:57:25.817Z,2.30
2022-11-07T06:58:25.788Z,2.30
2022-11-07T06:59:25.747Z,2.40
2022-11-07T07:00:25.695Z,2.20
2022-11-07T07:01:25.715Z,2.40
2022-11-07T07:02:56.431Z,2.50
2022-11-07T07:03:25.578Z,2.30
2022-11-07T07:04:25.531Z,2.40
2022-11-07T07:05:25.505Z,2.50
2022-11-07T07:06:25.450Z,2.30
2022-11-07T07:07:25.408Z,2.40
2022-11-07T07:08:25.371Z,2.60
2022-11-07T07:09:25.328Z,2.40
2022-11-07T07:10:25.541Z,2.60
2022-11-07T07:11:25.273Z,2.70
2022-11-07T07:12:25.211Z,2.60
2022-11-07T07:13:25.167Z,2.80
2022-11-07T07:14:25.126Z,2.30
2022-11-07T07:15:25.081Z,2.90
2022-11-07T07:16:25.057Z,2.60
2022-11-07T07:17:25.001Z,2.30
2022-11-07T07:18:24.964Z,2.50
2022-11-07T07:19:24.919Z,2.70
2022-11-07T07:20:24.879Z,2.50
2022-11-07T07:21:24.851Z,2.60
2022-11-07T07:22:24.796Z,2.60
2022-11-07T07:23:24.771Z,2.70
2022-11-07T07:24:24.719Z,2.50
2022-11-07T07:25:24.675Z,2.60
2022-11-07T07:26:24.633Z,2.40
2022-11-07T07:27:24.681Z,2.50
2022-11-07T07:28:24.553Z,2.60
2022-11-07T07:29:24.512Z,2.60
2022-11-07T07:30:24.475Z,2.30
2022-11-07T07:31:24.428Z,2.60
2022-11-07T07:32:24.391Z,2.60
2022-11-07T07:33:24.360Z,2.40
2022-11-07T07:34:24.308Z,2.40
2022-11-07T07:35:24.268Z,2.60
2022-11-07T07:36:24.229Z,2.40
2022-11-07T07:37:24.186Z,2.50
2022-11-07T07:38:24.159Z,2.60
2022-11-07T07:39:24.156Z,2.80
2022-11-07T07:40:24.080Z,2.70
2022-11-07T07:41:24.022Z,2.50
2022-11-07T07:42:23.989Z,2.80
2022-11-07T07:43:24.017Z,2.40
2022-11-07T07:44:23.915Z,2.70
2022-11-07T07:45:23.869Z,2.30
2022-11-07T07:46:23.823Z,2.80
2022-11-07T07:47:23.778Z,2.70
2022-11-07T07:48:23.742Z,2.60
2022-11-07T07:49:23.699Z,2.60
2022-11-07T07:50:23.674Z,2.40
2022-11-07T07:51:23.620Z,2.40
2022-11-07T07:52:23.579Z,2.70
2022-11-07T07:53:23.539Z,2.70
2022-11-07T07:54:23.499Z,2.40
2022-11-07T07:55:23.458Z,2.80
2022-11-07T07:56:23.426Z,2.20
2022-11-07T07:57:23.376Z,2.90
2022-11-07T07:58:23.336Z,2.60
2022-11-07T07:59:23.375Z,2.60
2022-11-07T08:00:23.257Z,2.80
2022-11-07T08:01:23.375Z,2.40
2022-11-07T08:02:23.253Z,2.40
2022-11-07T08:03:23.132Z,2.70
2022-11-07T08:04:23.094Z,2.80
2022-11-07T08:05:23.055Z,2.70
2022-11-07T08:06:23.014Z,2.60
2022-11-07T08:07:22.974Z,2.80
2022-11-07T08:08:22.944Z,2.40
2022-11-07T08:09:22.898Z,2.80
2022-11-07T08:11:22.811Z,2.30
2022-11-07T08:12:22.790Z,2.60
2022-11-07T08:13:22.746Z,2.70
2022-11-07T08:14:22.692Z,2.80
2022-11-07T08:15:22.730Z,2.90
2022-11-07T08:16:22.610Z,2.80
2022-11-07T08:17:22.570Z,2.60
2022-11-07T08:18:22.537Z,2.60
2022-11-07T08:19:22.501Z,2.50
2022-11-07T08:20:22.450Z,2.70
2022-11-07T08:21:22.406Z,2.80
2022-11-07T08:22:22.372Z,2.70
2022-11-07T08:23:22.598Z,2.50
2022-11-07T08:24:22.289Z,2.80
2022-11-07T08:25:22.269Z,2.70
2022-11-07T08:26:22.210Z,2.80
2022-11-07T08:27:22.174Z,2.60
2022-11-07T08:28:22.132Z,3.00
2022-11-07T08:29:22.087Z,2.60
2022-11-07T08:30:22.049Z,3.00
2022-11-07T08:31:22.016Z,2.70
2022-11-07T08:32:21.984Z,3.00
2022-11-07T08:33:22.001Z,2.90
2022-11-07T08:34:21.893Z,2.50
2022-11-07T08:35:21.848Z,2.80
2022-11-07T08:36:21.807Z,2.80
2022-11-07T08:37:21.777Z,2.80
2022-11-07T08:38:21.728Z,3.30
2022-11-07T08:39:21.692Z,2.90
2022-11-07T08:40:21.671Z,2.80
2022-11-07T08:41:22.541Z,2.80
2022-11-07T08:42:21.577Z,3.20
2022-11-07T08:43:21.536Z,2.90
2022-11-07T08:44:21.482Z,2.90
2022-11-07T08:45:21.445Z,2.60
2022-11-07T08:46:21.408Z,3.00
2022-11-07T08:47:21.365Z,3.20
2022-11-07T08:48:21.334Z,3.00
2022-11-07T08:49:21.295Z,3.00
2022-11-07T08:50:21.248Z,3.30
2022-11-07T08:51:21.207Z,3.10
2022-11-07T08:52:21.167Z,3.00
2022-11-07T08:53:21.394Z,2.90
2022-11-07T08:54:21.089Z,2.80
2022-11-07T08:55:21.058Z,3.20
2022-11-07T08:56:21.015Z,2.80
2022-11-07T08:57:20.963Z,2.80
2022-11-07T08:58:24.666Z,2.60
2022-11-07T08:59:20.888Z,2.70
2022-11-07T09:00:20.850Z,2.80
2022-11-07T09:01:20.886Z,2.80
2022-11-07T09:04:20.730Z,2.60
2022-11-07T09:05:20.649Z,2.70
2022-11-07T09:06:20.613Z,2.30
2022-11-07T09:07:20.585Z,2.20
2022-11-07T09:08:20.537Z,2.70
2022-11-07T09:09:20.496Z,2.30
2022-11-07T09:10:20.453Z,2.50
2022-11-07T09:11:20.416Z,2.80
2022-11-07T09:12:20.385Z,2.60
2022-11-07T09:13:20.348Z,2.40
2022-11-07T09:14:20.296Z,2.90
2022-11-07T09:15:20.256Z,2.80
2022-11-07T09:16:20.220Z,2.70
2022-11-07T09:17:20.179Z,2.60
2022-11-07T09:18:20.151Z,2.50
2022-11-07T09:19:20.103Z,2.50
2022-11-07T09:20:20.061Z,2.60
2022-11-07T09:21:22.690Z,2.60
2022-11-07T09:22:19.983Z,2.60
2022-11-07T09:23:20.286Z,2.60
2022-11-07T09:24:19.918Z,2.20
2022-11-07T09:25:19.877Z,2.80
2022-11-07T09:26:19.830Z,2.50
2022-11-07T09:27:19.787Z,2.30
2022-11-07T09:28:19.747Z,2.00
2022-11-07T09:29:19.708Z,2.70
2022-11-07T09:30:19.669Z,2.20
2022-11-07T09:31:19.641Z,2.20
2022-11-07T09:32:43.370Z,2.10
2022-11-07T09:33:19.550Z,2.30
2022-11-07T09:34:19.513Z,2.50
2022-11-07T09:35:19.473Z,2.20
2022-11-07T09:36:19.431Z,2.40
2022-11-07T09:37:19.405Z,2.40
2022-11-07T09:38:19.354Z,2.20
2022-11-07T09:39:19.317Z,2.10
2022-11-07T09:40:19.279Z,2.50
2022-11-07T09:41:19.235Z,2.40
2022-11-07T09:42:19.199Z,2.40
2022-11-07T09:43:19.417Z,2.50
2022-11-07T09:44:19.128Z,2.10
2022-11-07T09:45:19.081Z,2.30
2022-11-07T09:46:19.045Z,2.30
2022-11-07T09:47:19.003Z,2.30
2022-11-07T09:48:18.960Z,2.20
2022-11-07T09:49:18.933Z,2.40
2022-11-07T09:50:18.882Z,2.40
2022-11-07T09:51:18.846Z,2.20
2022-11-07T09:52:18.806Z,2.20
2022-11-07T09:53:18.874Z,2.60
2022-11-07T09:54:18.730Z,2.50
2022-11-07T09:55:18.710Z,2.60
2022-11-07T09:56:18.647Z,2.80
2022-11-07T09:57:18.605Z,2.50
2022-11-07T09:58:18.569Z,2.60
2022-11-07T09:59:18.534Z,2.50
2022-11-07T10:00:18.485Z,2.50
2022-11-07T10:01:18.596Z,2.50
2022-11-07T10:02:18.466Z,2.60
2022-11-07T10:03:18.848Z,2.60
2022-11-07T10:04:24.772Z,2.80
2022-11-07T10:05:18.287Z,3.00
2022-11-07T10:06:23.088Z,2.70
2022-11-07T10:07:18.222Z,2.90
2022-11-07T10:08:18.164Z,2.60
2022-11-07T10:09:18.139Z,2.90
2022-11-07T10:10:18.083Z,3.10
2022-11-07T10:11:18.048Z,2.80
2022-11-07T10:12:18.008Z,3.00
2022-11-07T10:13:18.294Z,2.80
2022-11-07T10:14:17.927Z,3.20
2022-11-07T10:15:17.912Z,3.00
2022-11-07T10:16:17.847Z,2.90
2022-11-07T10:17:17.970Z,2.80
2022-11-07T10:18:17.781Z,3.10
2022-11-07T10:19:17.728Z,2.80
2022-11-07T10:20:22.012Z,3.00
2022-11-07T10:21:36.948Z,2.80
2022-11-07T10:22:17.604Z,2.90
2022-11-07T10:23:17.958Z,3.10
2022-11-07T10:24:17.527Z,2.70
2022-11-07T10:25:17.489Z,2.90
2022-11-07T10:26:17.459Z,3.10
2022-11-07T10:27:17.407Z,2.80
2022-11-07T10:28:17.366Z,2.60
2022-11-07T10:29:17.327Z,2.90
2022-11-07T10:30:17.286Z,3.20
2022-11-07T10:31:17.258Z,3.00
2022-11-07T10:32:17.212Z,3.40
2022-11-07T10:33:17.471Z,3.20
2022-11-07T10:34:17.131Z,3.00
2022-11-07T10:35:17.086Z,3.00
2022-11-07T10:36:17.047Z,2.90
2022-11-07T10:37:17.024Z,3.20
2022-11-07T10:38:16.963Z,3.10
2022-11-07T10:39:16.993Z,3.00
2022-11-07T10:40:16.888Z,3.10
2022-11-07T10:41:16.846Z,3.00
2022-11-07T10:42:16.806Z,3.10
2022-11-07T10:43:17.100Z,3.30
2022-11-07T10:44:16.760Z,2.90
2022-11-07T10:45:16.692Z,2.80
2022-11-07T10:46:16.647Z,2.90
2022-11-07T10:47:16.614Z,3.00
2022-11-07T10:48:16.819Z,3.20
2022-11-07T10:49:16.541Z,3.80
2022-11-07T10:50:16.487Z,2.80
2022-11-07T10:51:16.446Z,3.00
2022-11-07T10:52:16.408Z,2.90
2022-11-07T10:53:16.370Z,2.90
2022-11-07T10:54:21.496Z,3.00
2022-11-07T10:55:16.305Z,3.30
2022-11-07T10:56:16.254Z,3.10
2022-11-07T10:57:16.210Z,3.20
2022-11-07T10:58:16.500Z,2.70
2022-11-07T10:59:16.133Z,3.10
2022-11-07T11:00:16.091Z,3.20
2022-11-07T11:01:16.144Z,2.70
2022-11-07T11:02:16.067Z,3.00
2022-11-07T11:03:15.975Z,2.80
2022-11-07T11:04:15.935Z,3.10
2022-11-07T11:05:15.895Z,2.90
2022-11-07T11:06:15.857Z,3.10
2022-11-07T11:07:15.934Z,2.90
2022-11-07T11:08:16.250Z,3.30
2022-11-07T11:09:15.755Z,3.20
2022-11-07T11:10:15.813Z,3.00
2022-11-07T11:11:15.662Z,3.20
2022-11-07T11:12:15.639Z,3.30
2022-11-07T11:13:15.580Z,3.10
2022-11-07T11:14:15.552Z,3.10
2022-11-07T11:15:15.502Z,3.50
2022-11-07T11:16:15.466Z,3.40
2022-11-07T11:17:15.588Z,3.20
2022-11-07T11:18:15.744Z,3.10
2022-11-07T11:19:15.346Z,3.00
2022-11-07T11:20:15.309Z,3.90
2022-11-07T11:21:15.268Z,3.00
2022-11-07T11:22:15.284Z,3.30
2022-11-07T11:23:15.576Z,3.20
2022-11-07T11:24:15.151Z,3.00
2022-11-07T11:25:15.119Z,3.30
2022-11-07T11:26:15.311Z,3.10
2022-11-07T11:27:15.033Z,3.40
2022-11-07T11:28:15.157Z,3.10
2022-11-07T11:29:14.955Z,2.90
2022-11-07T11:30:14.916Z,3.30
2022-11-07T11:31:14.873Z,3.20
2022-11-07T11:32:15.049Z,2.60
2022-11-07T11:33:15.273Z,2.90
2022-11-07T11:34:14.772Z,3.20
2022-11-07T11:35:15.200Z,2.90
2022-11-07T11:36:14.741Z,2.80
2022-11-07T11:37:14.968Z,2.90
2022-11-07T11:38:14.602Z,2.70
2022-11-07T11:39:14.566Z,3.30
2022-11-07T11:40:14.572Z,2.70
2022-11-07T11:41:14.502Z,3.20
2022-11-07T11:42:14.463Z,2.70
2022-11-07T11:43:14.881Z,3.20
2022-11-07T11:44:14.372Z,2.90
2022-11-07T11:45:14.331Z,2.80
2022-11-07T11:46:14.300Z,2.60
2022-11-07T11:47:14.255Z,2.90
2022-11-07T11:48:14.226Z,3.00
2022-11-07T11:49:14.175Z,3.00
2022-11-07T11:50:14.225Z,2.80
2022-11-07T11:51:14.103Z,3.30
2022-11-07T11:52:14.077Z,3.00
2022-11-07T11:53:14.225Z,2.70
2022-11-07T11:54:14.245Z,2.60
2022-11-07T11:55:15.026Z,2.60
2022-11-07T11:56:14.414Z,2.30
2022-11-07T11:57:13.869Z,2.60
2022-11-07T11:58:13.828Z,2.60
2022-11-07T11:59:13.791Z,3.00
2022-11-07T12:00:13.812Z,2.50
2022-11-07T12:01:13.844Z,2.60
2022-11-07T12:02:13.720Z,2.60
2022-11-07T12:03:26.285Z,2.40
2022-11-07T12:04:13.593Z,3.00
2022-11-07T12:05:13.555Z,2.70
2022-11-07T12:06:13.523Z,2.80
2022-11-07T12:07:13.475Z,2.70
2022-11-07T12:08:14.470Z,2.40
2022-11-07T12:09:17.078Z,2.40
2022-11-07T12:10:13.408Z,2.40
2022-11-07T12:11:13.336Z,2.10
2022-11-07T12:12:13.278Z,2.20
2022-11-07T12:13:13.411Z,2.70
2022-11-07T12:14:13.199Z,2.60
2022-11-07T12:15:13.170Z,2.70
2022-11-07T12:16:13.125Z,2.40
2022-11-07T12:17:13.085Z,2.40
2022-11-07T12:18:13.046Z,2.10
2022-11-07T12:19:13.424Z,2.40
2022-11-07T12:20:12.999Z,2.20
2022-11-07T12:21:12.930Z,2.20
2022-11-07T12:22:13.036Z,2.60
2022-11-07T12:23:14.177Z,2.40
2022-11-07T12:24:13.162Z,2.40
2022-11-07T12:25:12.791Z,2.10
2022-11-07T12:26:12.835Z,2.10
2022-11-07T12:27:12.700Z,2.20
2022-11-07T12:28:12.666Z,2.20
2022-11-07T12:29:12.619Z,2.20
2022-11-07T12:30:12.639Z,2.30
2022-11-07T12:31:12.552Z,2.20
2022-11-07T12:32:12.508Z,2.50
2022-11-07T12:33:12.473Z,2.00
2022-11-07T12:34:12.432Z,2.00
2022-11-07T12:35:12.405Z,2.00
2022-11-07T12:36:13.298Z,2.10
2022-11-07T12:37:12.891Z,2.30
2022-11-07T12:38:12.282Z,2.20
2022-11-07T12:39:12.464Z,2.00
2022-11-07T12:40:13.878Z,2.00
2022-11-07T12:41:12.312Z,2.30
2022-11-07T12:42:12.139Z,2.00
2022-11-07T12:44:44.152Z,2.00
2022-11-07T12:45:44.114Z,2.20
2022-11-07T12:46:44.075Z,2.00
2022-11-07T12:47:44.052Z,2.20
2022-11-07T12:48:43.997Z,2.00
2022-11-07T12:49:43.961Z,1.80
2022-11-07T12:50:43.920Z,2.10
2022-11-07T12:51:43.964Z,2.10
2022-11-07T12:52:43.843Z,1.90
2022-11-07T12:53:43.820Z,1.90
2022-11-07T12:54:43.769Z,2.30
2022-11-07T12:55:43.732Z,1.70
2022-11-07T12:56:43.692Z,2.00
2022-11-07T12:57:43.883Z,1.80
2022-11-07T12:58:43.741Z,2.10
2022-11-07T12:59:43.585Z,2.00
2022-11-07T13:00:43.537Z,2.30
2022-11-07T13:01:43.613Z,2.10
2022-11-07T13:02:43.587Z,1.90
2022-11-07T13:03:43.436Z,1.80
2022-11-07T13:04:43.387Z,2.00
2022-11-07T13:05:43.351Z,2.20
2022-11-07T13:06:43.310Z,1.90
2022-11-07T13:07:43.282Z,1.90
2022-11-07T13:08:43.235Z,2.10
2022-11-07T13:09:43.207Z,1.90
2022-11-07T13:10:43.160Z,1.90
2022-11-07T13:11:43.128Z,2.00
2022-11-07T13:12:43.085Z,2.10
2022-11-07T13:13:43.044Z,1.70
2022-11-07T13:14:43.006Z,2.00
2022-11-07T13:16:13.437Z,2.10
2022-11-07T13:16:42.932Z,2.10
2022-11-07T13:17:42.892Z,2.30
2022-11-07T13:18:43.037Z,1.80
2022-11-07T13:19:42.822Z,2.20
2022-11-07T13:20:42.793Z,1.90
2022-11-07T13:21:42.742Z,2.00
2022-11-07T13:22:42.705Z,1.90